Time;durP1;ratioP1;P1;durP2;ratioP2;P2;SDS_P1;SDS_P2;PMS_P1;PMS_P2;Temp;Humidity;BMP_temperature;BMP_pressure;BME280_temperature;BME280_humidity;BME280_pressure;Samples;Min_cycle;Max_cycle;Signal;HPM_P1;HPM_P2
2023/09/12 00:01:19;;;;;;;11.63;10.63;;;18.70;99.90;;;;;;5078470;28;20249;-76
2023/09/12 00:03:45;;;;;;;11.63;10.53;;;18.70;99.90;;;;;;5078131;28;20203;-76
2023/09/12 00:06:10;;;;;;;13.37;9.80;;;18.70;99.90;;;;;;5078184;28;20171;-77
2023/09/12 00:08:36;;;;;;;11.70;10.57;;;18.70;99.90;;;;;;5076927;28;20187;-76
2023/09/12 00:11:12;;;;;;;10.80;9.90;;;18.80;99.90;;;;;;5083500;28;20178;-77
2023/09/12 00:13:39;;;;;;;10.63;9.73;;;18.80;99.90;;;;;;5085360;28;20173;-76
2023/09/12 00:16:11;;;;;;;10.90;9.80;;;18.80;99.90;;;;;;5077802;28;20197;-76
2023/09/12 00:18:39;;;;;;;11.40;10.40;;;18.80;99.90;;;;;;5077790;28;20213;-78
2023/09/12 00:21:05;;;;;;;11.13;10.13;;;18.70;99.90;;;;;;5077920;28;20179;-77
2023/09/12 00:23:32;;;;;;;13.70;10.27;;;18.80;99.90;;;;;;5077772;28;20271;-78
2023/09/12 00:25:58;;;;;;;11.57;10.57;;;18.70;99.90;;;;;;5077740;28;20171;-76
2023/09/12 00:28:24;;;;;;;11.53;10.47;;;18.70;99.90;;;;;;5077450;28;20184;-76
2023/09/12 00:30:51;;;;;;;11.57;10.57;;;18.70;99.90;;;;;;5077755;28;20179;-77
2023/09/12 00:33:17;;;;;;;11.43;10.37;;;18.70;99.90;;;;;;5079139;28;20640;-76
2023/09/12 00:35:44;;;;;;;11.73;10.63;;;18.70;99.90;;;;;;5087195;28;20183;-77
2023/09/12 00:38:10;;;;;;;11.27;10.17;;;18.60;99.90;;;;;;5078185;28;20610;-76
2023/09/12 00:40:37;;;;;;;11.50;10.43;;;18.60;99.90;;;;;;5076091;28;20198;-75
2023/09/12 00:43:04;;;;;;;11.50;10.50;;;18.60;99.90;;;;;;5078893;28;20217;-76
2023/09/12 00:45:30;;;;;;;10.90;9.90;;;18.50;99.90;;;;;;5063261;28;20494;-76
2023/09/12 00:48:00;;;;;;;11.23;10.33;;;18.50;99.90;;;;;;5063186;28;20185;-77
2023/09/12 00:50:26;;;;;;;12.07;10.90;;;18.50;99.90;;;;;;5081494;28;20648;-78
2023/09/12 00:52:54;;;;;;;11.73;10.63;;;18.40;99.90;;;;;;5063105;28;20179;-76
2023/09/12 00:55:20;;;;;;;12.23;11.00;;;18.40;99.90;;;;;;5081628;28;20603;-75
2023/09/12 00:57:47;;;;;;;13.00;11.87;;;18.40;99.90;;;;;;5092072;28;20193;-77
2023/09/12 01:00:14;;;;;;;12.80;11.70;;;18.40;99.90;;;;;;5087916;28;20641;-76
2023/09/12 01:02:45;;;;;;;12.00;10.97;;;18.30;99.90;;;;;;5081354;28;20203;-76
2023/09/12 01:05:13;;;;;;;12.37;11.23;;;18.30;99.90;;;;;;5081161;28;20286;-76
2023/09/12 01:07:39;;;;;;;12.70;11.60;;;18.30;99.90;;;;;;5080887;28;20212;-76
2023/09/12 01:10:06;;;;;;;12.57;11.53;;;18.30;99.90;;;;;;5090000;28;20174;-77
2023/09/12 01:12:33;;;;;;;12.33;11.33;;;18.30;99.90;;;;;;5062863;28;20176;-76
2023/09/12 01:14:59;;;;;;;12.20;11.07;;;18.20;99.90;;;;;;5080989;28;20175;-76
2023/09/12 01:17:25;;;;;;;12.53;11.33;;;18.20;99.90;;;;;;5088788;28;20226;-77
2023/09/12 01:19:51;;;;;;;13.03;11.83;;;18.20;99.90;;;;;;5094708;28;20214;-77
2023/09/12 01:22:57;;;;;;;12.07;11.07;;;18.20;99.90;;;;;;5090704;28;20164;-76
2023/09/12 01:26:09;;;;;;;12.33;11.23;;;18.10;99.90;;;;;;5080448;28;20191;-76
2023/09/12 01:28:37;;;;;;;12.53;11.47;;;18.10;99.90;;;;;;5032374;28;20241;-75
2023/09/12 01:31:05;;;;;;;12.13;11.13;;;18.00;99.90;;;;;;5080269;28;20171;-76
2023/09/12 01:33:31;;;;;;;13.63;12.43;;;18.00;99.90;;;;;;5080764;28;20249;-77
2023/09/12 01:35:57;;;;;;;13.80;12.60;;;17.90;99.90;;;;;;5079791;28;20170;-75
2023/09/12 01:38:23;;;;;;;13.43;12.10;;;17.90;99.90;;;;;;5078617;28;20183;-77
2023/09/12 01:40:52;;;;;;;13.57;12.40;;;17.90;99.90;;;;;;5076781;28;20262;-77
2023/09/12 01:43:22;;;;;;;15.50;13.20;;;17.90;99.90;;;;;;5079335;28;20344;-78
2023/09/12 01:45:52;;;;;;;13.90;12.60;;;17.90;99.90;;;;;;5091665;28;20160;-76
2023/09/12 01:48:21;;;;;;;14.23;12.93;;;17.90;99.90;;;;;;5075952;28;20182;-77
2023/09/12 01:50:47;;;;;;;13.80;12.60;;;17.80;99.90;;;;;;5057639;28;20576;-76
2023/09/12 01:53:14;;;;;;;14.30;13.00;;;17.80;99.90;;;;;;5075954;28;20253;-76
2023/09/12 01:55:44;;;;;;;13.80;12.47;;;17.80;99.90;;;;;;5075465;28;20198;-76
2023/09/12 01:58:11;;;;;;;14.03;12.70;;;17.80;99.90;;;;;;5086234;28;20143;-79
2023/09/12 02:00:38;;;;;;;14.37;12.97;;;17.80;99.90;;;;;;5079385;28;20240;-77
2023/09/12 02:03:04;;;;;;;13.60;12.37;;;17.80;99.90;;;;;;5075896;28;20187;-77
2023/09/12 02:05:30;;;;;;;14.23;12.83;;;17.70;99.90;;;;;;5075896;28;20557;-78
2023/09/12 02:07:56;;;;;;;14.40;13.17;;;17.70;99.90;;;;;;5075815;28;20293;-77
2023/09/12 02:10:21;;;;;;;13.37;12.27;;;17.70;99.90;;;;;;5078525;28;20179;-76
2023/09/12 02:12:47;;;;;;;14.40;13.10;;;17.60;99.90;;;;;;5086254;28;20184;-76
2023/09/12 02:15:13;;;;;;;15.30;13.53;;;17.60;99.90;;;;;;5081735;28;20183;-77
2023/09/12 02:17:39;;;;;;;15.30;13.90;;;17.60;99.90;;;;;;5076893;28;20178;-78
2023/09/12 02:20:09;;;;;;;14.23;12.87;;;17.60;99.90;;;;;;5071236;28;20171;-77
2023/09/12 02:22:35;;;;;;;14.90;13.70;;;17.60;99.90;;;;;;5055790;28;20187;-77
2023/09/12 02:25:03;;;;;;;14.27;13.07;;;17.50;99.90;;;;;;5072119;28;20231;-76
2023/09/12 02:27:28;;;;;;;13.97;12.73;;;17.50;99.90;;;;;;5070874;28;20250;-78
2023/09/12 02:29:55;;;;;;;14.93;13.63;;;17.50;99.90;;;;;;5074487;28;20261;-76
2023/09/12 02:32:21;;;;;;;14.23;12.93;;;17.50;99.90;;;;;;5075876;28;20171;-76
2023/09/12 02:34:46;;;;;;;14.97;13.57;;;17.50;99.90;;;;;;5057263;28;20708;-76
2023/09/12 02:37:12;;;;;;;13.90;12.67;;;17.50;99.90;;;;;;5057221;28;20186;-77
2023/09/12 02:39:38;;;;;;;14.33;13.03;;;17.50;99.90;;;;;;5075496;28;20206;-77
2023/09/12 02:42:05;;;;;;;15.03;13.53;;;17.40;99.90;;;;;;5075158;28;20190;-76
2023/09/12 02:44:30;;;;;;;14.33;13.03;;;17.40;99.90;;;;;;5075184;28;20222;-77
2023/09/12 02:46:56;;;;;;;14.50;13.10;;;17.40;99.90;;;;;;5077170;28;20174;-78
2023/09/12 02:49:22;;;;;;;14.17;12.53;;;17.30;99.90;;;;;;5082523;28;20185;-79
2023/09/12 02:51:48;;;;;;;14.70;13.23;;;17.30;99.90;;;;;;5096913;28;20212;-77
2023/09/12 02:54:13;;;;;;;16.20;13.57;;;17.30;99.90;;;;;;5079220;28;20673;-77
2023/09/12 02:56:39;;;;;;;14.77;13.43;;;17.20;99.90;;;;;;5087797;28;20171;-77
2023/09/12 02:59:05;;;;;;;14.93;13.57;;;17.20;99.90;;;;;;5071141;28;20212;-77
2023/09/12 03:01:31;;;;;;;15.00;13.67;;;17.20;99.90;;;;;;5083510;28;20178;-76
2023/09/12 03:03:57;;;;;;;15.37;14.07;;;17.20;99.90;;;;;;5075789;28;20255;-76
2023/09/12 03:06:23;;;;;;;15.67;14.27;;;17.20;99.90;;;;;;5075204;28;20186;-77
2023/09/12 03:08:50;;;;;;;15.67;13.37;;;17.20;99.90;;;;;;5078435;28;20167;-76
2023/09/12 03:11:16;;;;;;;15.67;14.23;;;17.20;99.90;;;;;;5077694;28;20178;-77
2023/09/12 03:13:42;;;;;;;13.93;12.73;;;17.10;99.90;;;;;;5077713;28;20646;-76
2023/09/12 03:16:12;;;;;;;14.60;13.03;;;17.10;99.90;;;;;;5078494;28;20182;-76
2023/09/12 03:18:37;;;;;;;15.60;14.23;;;17.10;99.90;;;;;;5062714;28;20643;-80
2023/09/12 03:21:03;;;;;;;14.60;13.30;;;17.10;99.90;;;;;;5084571;28;20239;-77
2023/09/12 03:23:29;;;;;;;15.27;13.67;;;17.10;99.90;;;;;;5075427;28;20278;-76
2023/09/12 03:25:55;;;;;;;15.87;14.37;;;17.00;99.90;;;;;;5074275;28;20179;-76
2023/09/12 03:28:20;;;;;;;14.33;13.03;;;17.00;99.90;;;;;;5075127;28;20175;-76
2023/09/12 03:30:46;;;;;;;15.00;13.60;;;17.00;99.90;;;;;;5075080;28;20185;-77
2023/09/12 03:33:12;;;;;;;14.27;12.97;;;16.90;99.90;;;;;;5056219;28;20292;-76
2023/09/12 03:35:38;;;;;;;15.50;14.07;;;16.90;99.90;;;;;;5076522;28;20185;-78
2023/09/12 03:38:04;;;;;;;15.23;13.83;;;16.90;99.90;;;;;;5076942;28;20257;-78
2023/09/12 03:40:30;;;;;;;14.83;13.57;;;16.90;99.90;;;;;;5077709;28;20258;-76
2023/09/12 03:42:56;;;;;;;15.93;14.17;;;16.90;99.90;;;;;;5074482;28;20167;-76
2023/09/12 03:45:22;;;;;;;15.07;13.77;;;15.80;99.90;;;;;;5073691;28;20267;-77
2023/09/12 03:47:48;;;;;;;14.60;13.30;;;16.80;99.90;;;;;;5074170;28;20202;-76
2023/09/12 03:50:14;;;;;;;14.57;13.27;;;16.80;99.90;;;;;;5055741;28;20175;-77
2023/09/12 03:52:40;;;;;;;14.20;13.07;;;16.80;99.90;;;;;;5073706;28;20636;-76
2023/09/12 03:55:06;;;;;;;15.43;14.00;;;16.80;99.90;;;;;;5073895;28;20526;-76
2023/09/12 03:57:31;;;;;;;14.97;13.57;;;16.80;99.90;;;;;;5074377;28;20167;-76
2023/09/12 03:59:57;;;;;;;15.33;13.87;;;16.80;99.90;;;;;;5074054;28;20488;-76
2023/09/12 04:02:23;;;;;;;14.27;12.97;;;16.80;99.90;;;;;;5075466;28;20177;-76
2023/09/12 04:04:49;;;;;;;15.87;14.33;;;16.80;99.90;;;;;;5075041;28;20226;-75
2023/09/12 04:07:15;;;;;;;15.13;13.63;;;16.80;99.90;;;;;;5074657;28;20171;-78
2023/09/12 04:09:41;;;;;;;14.90;13.40;;;16.80;99.90;;;;;;5074789;28;20178;-76
2023/09/12 04:12:08;;;;;;;14.83;13.53;;;16.80;99.90;;;;;;5076586;28;20172;-76
2023/09/12 04:14:35;;;;;;;14.20;12.90;;;16.80;99.90;;;;;;5076702;28;20172;-75
2023/09/12 04:17:01;;;;;;;14.93;13.43;;;16.80;99.90;;;;;;5078686;28;20175;-76
2023/09/12 04:19:26;;;;;;;14.20;12.80;;;16.80;99.90;;;;;;5079461;28;20171;-77
2023/09/12 04:21:52;;;;;;;14.93;13.43;;;16.80;99.90;;;;;;5080141;28;20175;-76
2023/09/12 04:24:18;;;;;;;15.00;13.60;;;16.70;99.90;;;;;;5081573;28;20226;-76
2023/09/12 04:26:44;;;;;;;14.07;12.77;;;16.70;99.90;;;;;;5081329;28;20171;-77
2023/09/12 04:29:10;;;;;;;15.13;13.53;;;16.70;99.90;;;;;;5076422;28;20276;-76
2023/09/12 04:31:36;;;;;;;13.77;12.53;;;16.70;99.90;;;;;;5075570;28;20195;-77
2023/09/12 04:34:02;;;;;;;14.20;12.87;;;16.80;99.90;;;;;;5076200;28;20232;-76
2023/09/12 04:36:28;;;;;;;13.80;12.43;;;16.90;99.90;;;;;;5082499;28;20175;-78
2023/09/12 04:38:54;;;;;;;14.27;12.97;;;16.90;99.90;;;;;;5076639;28;20246;-76
2023/09/12 04:41:20;;;;;;;12.93;11.73;;;16.90;99.90;;;;;;5077145;28;20170;-76
2023/09/12 04:43:46;;;;;;;12.77;11.67;;;17.00;99.90;;;;;;5069856;28;20241;-79
2023/09/12 04:46:12;;;;;;;13.83;12.47;;;17.00;99.90;;;;;;5092509;28;20176;-79
2023/09/12 04:48:38;;;;;;;12.90;11.77;;;17.00;99.90;;;;;;5088244;28;20179;-76
2023/09/12 04:51:05;;;;;;;13.87;12.43;;;17.10;99.90;;;;;;5090168;28;20161;-77
2023/09/12 04:53:34;;;;;;;12.97;11.53;;;17.00;99.90;;;;;;5061671;28;20859;-78
2023/09/12 04:56:04;;;;;;;13.23;11.93;;;17.10;99.90;;;;;;5084444;28;20199;-78
2023/09/12 04:58:30;;;;;;;13.57;12.27;;;17.10;99.90;;;;;;5097856;28;20182;-78
2023/09/12 05:00:55;;;;;;;14.20;12.90;;;17.20;99.90;;;;;;5086497;28;20638;-76
2023/09/12 05:03:22;;;;;;;13.53;12.30;;;17.20;99.90;;;;;;5076592;28;20235;-78
2023/09/12 05:05:49;;;;;;;15.00;12.63;;;17.10;99.90;;;;;;5077963;28;20181;-76
2023/09/12 05:08:18;;;;;;;12.50;11.40;;;17.10;99.90;;;;;;5078100;28;20171;-76
2023/09/12 05:10:46;;;;;;;13.77;12.47;;;17.20;99.90;;;;;;5077961;28;20180;-76
2023/09/12 05:13:13;;;;;;;13.77;11.93;;;17.10;99.90;;;;;;5076056;28;20170;-77
2023/09/12 05:15:40;;;;;;;15.80;12.80;;;17.10;99.90;;;;;;5058495;28;20182;-76
2023/09/12 05:18:07;;;;;;;14.23;12.50;;;17.20;99.90;;;;;;5075920;28;20202;-77
2023/09/12 05:20:34;;;;;;;14.13;12.73;;;17.20;99.90;;;;;;5078094;28;20673;-77
2023/09/12 05:22:59;;;;;;;13.83;12.00;;;17.30;99.90;;;;;;5092508;28;20162;-76
2023/09/12 05:25:26;;;;;;;14.20;12.80;;;17.30;99.90;;;;;;5086695;28;20214;-77
2023/09/12 05:27:52;;;;;;;14.23;12.93;;;17.30;99.90;;;;;;5080447;28;20176;-76
2023/09/12 05:30:18;;;;;;;14.43;13.07;;;17.30;99.90;;;;;;5081601;28;20174;-77
2023/09/12 05:32:44;;;;;;;16.43;12.80;;;17.20;99.90;;;;;;5081847;28;20174;-77
2023/09/12 05:35:10;;;;;;;13.80;12.50;;;17.30;99.90;;;;;;5065715;28;20247;-77
2023/09/12 05:37:36;;;;;;;14.30;12.93;;;17.30;99.90;;;;;;5088504;28;20313;-77
2023/09/12 05:40:02;;;;;;;14.83;13.33;;;17.40;99.90;;;;;;5099732;28;20205;-76
2023/09/12 05:42:28;;;;;;;15.90;13.17;;;17.40;99.90;;;;;;5083061;28;20169;-77
2023/09/12 05:44:54;;;;;;;15.33;12.90;;;17.40;99.90;;;;;;5100510;28;20206;-77
2023/09/12 05:47:21;;;;;;;15.33;13.77;;;17.40;99.90;;;;;;5101287;28;20179;-78
2023/09/12 05:49:46;;;;;;;14.20;12.90;;;17.50;99.90;;;;;;5092540;28;20174;-78
2023/09/12 05:52:12;;;;;;;14.23;12.73;;;17.50;99.90;;;;;;5095464;28;20180;-78
2023/09/12 05:54:41;;;;;;;14.97;13.43;;;17.60;99.90;;;;;;5076254;28;20179;-77
2023/09/12 05:57:09;;;;;;;14.77;12.93;;;17.60;99.90;;;;;;5081779;28;20254;-77
2023/09/12 05:59:36;;;;;;;15.80;13.63;;;17.70;99.90;;;;;;5077928;28;20175;-77
2023/09/12 06:02:02;;;;;;;16.60;13.80;;;17.50;99.90;;;;;;5060198;28;20698;-79
2023/09/12 06:04:28;;;;;;;15.10;13.37;;;18.00;99.90;;;;;;5080309;28;20238;-77
2023/09/12 06:06:54;;;;;;;15.30;13.70;;;18.10;99.90;;;;;;5085249;28;20253;-77
2023/09/12 06:09:19;;;;;;;15.47;13.93;;;18.10;99.90;;;;;;5062870;28;20208;-77
2023/09/12 06:11:45;;;;;;;15.63;13.73;;;18.10;99.90;;;;;;5076149;28;20167;-78
2023/09/12 06:14:11;;;;;;;15.97;13.73;;;18.20;99.90;;;;;;5077247;28;20217;-78
2023/09/12 06:16:36;;;;;;;15.30;13.77;;;18.30;99.90;;;;;;5061634;28;20182;-77
2023/09/12 06:19:02;;;;;;;16.97;13.60;;;18.40;99.90;;;;;;5078461;28;20179;-77
2023/09/12 06:21:28;;;;;;;18.80;14.03;;;18.40;99.90;;;;;;5062861;28;20186;-77
2023/09/12 06:24:23;;;;;;;15.97;14.37;;;18.50;99.90;;;;;;5079816;28;20207;-76
2023/09/12 06:26:50;;;;;;;15.50;13.70;;;18.60;99.90;;;;;;5003608;28;20195;-78
2023/09/12 06:29:15;;;;;;;11.63;10.30;;;18.70;99.90;;;;;;5028529;28;20165;-78
2023/09/12 06:31:41;;;;;;;12.80;9.60;;;18.70;99.90;;;;;;5030900;28;20277;-79
2023/09/12 06:34:08;;;;;;;10.47;9.37;;;18.80;99.90;;;;;;5029904;28;20270;-78
2023/09/12 06:36:34;;;;;;;11.00;9.90;;;18.90;99.90;;;;;;5024612;28;20571;-77
2023/09/12 06:39:00;;;;;;;10.57;9.43;;;19.00;99.90;;;;;;5019925;28;20177;-77
2023/09/12 06:41:27;;;;;;;11.17;9.43;;;19.10;99.90;;;;;;5015638;28;20169;-78
2023/09/12 06:43:53;;;;;;;10.63;9.17;;;19.20;99.90;;;;;;5020050;28;20249;-78
2023/09/12 06:46:19;;;;;;;10.10;9.03;;;19.30;99.90;;;;;;5027367;28;20166;-78
2023/09/12 06:48:46;;;;;;;12.17;9.70;;;19.40;99.90;;;;;;5014614;28;20179;-77
2023/09/12 06:51:12;;;;;;;10.83;9.60;;;19.50;99.90;;;;;;5013411;28;20181;-77
2023/09/12 06:53:38;;;;;;;10.50;9.33;;;19.60;99.90;;;;;;5013755;28;20184;-77
2023/09/12 06:56:05;;;;;;;15.57;9.77;;;19.60;99.90;;;;;;5013885;28;20578;-77
2023/09/12 06:58:32;;;;;;;10.87;9.17;;;19.70;99.90;;;;;;5013753;28;20649;-77
2023/09/12 07:01:05;;;;;;;11.50;8.77;;;19.70;99.90;;;;;;4997380;28;20173;-77
2023/09/12 07:03:32;;;;;;;12.50;9.47;;;19.80;99.90;;;;;;5053393;28;20219;-77
2023/09/12 07:05:58;;;;;;;10.40;9.30;;;19.90;99.90;;;;;;5075851;28;20242;-77
2023/09/12 07:08:24;;;;;;;13.43;8.80;;;20.00;99.90;;;;;;5075262;28;20175;-77
2023/09/12 07:10:50;;;;;;;10.87;9.10;;;20.10;99.90;;;;;;5075349;28;20168;-76
2023/09/12 07:13:16;;;;;;;11.33;9.20;;;20.10;99.90;;;;;;5075232;28;20171;-78
2023/09/12 07:15:41;;;;;;;10.43;9.47;;;20.10;99.90;;;;;;5075080;28;20187;-77
2023/09/12 07:18:07;;;;;;;10.20;9.30;;;20.20;99.90;;;;;;5074815;28;20255;-79
2023/09/12 07:20:34;;;;;;;11.10;9.50;;;20.30;99.90;;;;;;5074778;28;20167;-76
2023/09/12 07:23:00;;;;;;;10.80;9.53;;;20.40;99.90;;;;;;5074924;28;20561;-77
2023/09/12 07:25:26;;;;;;;9.90;8.90;;;20.50;99.90;;;;;;5075056;28;20195;-77
2023/09/12 07:27:52;;;;;;;15.70;9.33;;;20.60;99.90;;;;;;5075480;28;20198;-79
2023/09/12 07:30:18;;;;;;;11.83;10.57;;;20.60;99.90;;;;;;5089512;28;20230;-79
2023/09/12 07:32:44;;;;;;;14.17;12.37;;;20.70;99.90;;;;;;5075041;28;20274;-78
2023/09/12 07:35:11;;;;;;;14.17;11.70;;;20.80;99.90;;;;;;5074768;28;20694;-77
2023/09/12 07:37:36;;;;;;;21.60;13.60;;;20.80;99.90;;;;;;5074378;28;20167;-77
2023/09/12 07:40:09;;;;;;;21.50;12.70;;;20.90;99.90;;;;;;5081475;28;20187;-77
2023/09/12 07:42:36;;;;;;;19.03;13.57;;;20.80;99.90;;;;;;5073777;28;20148;-79
2023/09/12 07:45:05;;;;;;;14.50;12.90;;;20.90;99.90;;;;;;5073454;28;20608;-76
2023/09/12 07:47:32;;;;;;;13.77;11.80;;;20.90;99.90;;;;;;5078407;28;20222;-78
2023/09/12 07:50:00;;;;;;;16.77;13.03;;;21.00;99.90;;;;;;5082439;28;20175;-78
2023/09/12 07:52:26;;;;;;;20.20;13.00;;;21.00;99.90;;;;;;5082824;28;20295;-78
2023/09/12 07:54:56;;;;;;;16.70;13.03;;;21.10;99.90;;;;;;5056810;28;20175;-78
2023/09/12 07:57:23;;;;;;;14.40;12.20;;;21.10;99.90;;;;;;5057037;28;20694;-78
2023/09/12 07:59:49;;;;;;;16.40;13.00;;;21.20;99.90;;;;;;5074298;28;20171;-79
2023/09/12 08:02:15;;;;;;;14.60;12.23;;;21.40;99.90;;;;;;5079631;28;20178;-78
2023/09/12 08:04:41;;;;;;;18.47;12.40;;;21.50;99.90;;;;;;5085486;28;20211;-79
2023/09/12 08:07:06;;;;;;;14.23;11.60;;;21.60;99.90;;;;;;5074746;28;20190;-78
2023/09/12 08:09:57;;;;;;;15.90;12.00;;;21.70;99.90;;;;;;5056460;28;20179;-77
2023/09/12 08:12:25;;;;;;;12.47;11.27;;;21.70;99.90;;;;;;5074379;28;20603;-77
2023/09/12 08:14:51;;;;;;;13.43;11.40;;;21.90;99.90;;;;;;5076284;28;20642;-80
2023/09/12 08:17:17;;;;;;;18.30;11.13;;;21.90;99.90;;;;;;5082054;28;20190;-77
2023/09/12 08:19:43;;;;;;;12.17;10.87;;;22.00;99.90;;;;;;5057401;28;20207;-78
2023/09/12 08:22:10;;;;;;;15.73;11.73;;;22.10;99.90;;;;;;5075188;28;20606;-77
2023/09/12 08:24:37;;;;;;;13.13;10.83;;;22.20;99.90;;;;;;5057331;28;20584;-80
2023/09/12 08:27:03;;;;;;;11.57;10.57;;;22.20;99.90;;;;;;5095190;28;20151;-80
2023/09/12 08:29:29;;;;;;;11.03;9.77;;;22.30;99.90;;;;;;5077207;28;20201;-78
2023/09/12 08:31:55;;;;;;;10.75;9.52;;;22.30;99.90;;;;;;5077626;28;20163;-79
2023/09/12 08:34:22;;;;;;;13.77;9.85;;;22.50;99.90;;;;;;5074085;28;20219;-77
2023/09/12 08:36:47;;;;;;;10.30;9.40;;;22.50;99.90;;;;;;5074248;28;20171;-78
2023/09/12 08:39:16;;;;;;;11.73;10.53;;;22.50;99.90;;;;;;5073806;28;20182;-78
2023/09/12 08:41:42;;;;;;;10.40;9.30;;;22.50;99.90;;;;;;5073487;28;20163;-78
2023/09/12 08:44:09;;;;;;;11.33;10.23;;;22.50;99.90;;;;;;5073701;28;20667;-78
2023/09/12 08:46:36;;;;;;;11.60;10.20;;;22.50;99.90;;;;;;5073476;28;20242;-77
2023/09/12 08:49:04;;;;;;;10.77;9.80;;;22.60;99.90;;;;;;5074532;28;20282;-77
2023/09/12 08:51:32;;;;;;;11.65;9.68;;;22.60;99.90;;;;;;5066353;28;20189;-79
2023/09/12 08:53:58;;;;;;;10.83;9.83;;;22.70;99.90;;;;;;5084218;28;20171;-77
2023/09/12 08:56:24;;;;;;;10.52;9.57;;;22.70;99.90;;;;;;5073668;28;20175;-78
2023/09/12 08:58:52;;;;;;;10.25;9.35;;;22.80;99.90;;;;;;5073494;28;20548;-78
2023/09/12 09:01:19;;;;;;;10.80;9.57;;;22.90;99.90;;;;;;5073678;28;20167;-77
2023/09/12 09:03:45;;;;;;;11.07;9.57;;;22.90;99.90;;;;;;5075072;28;20198;-77
2023/09/12 09:06:14;;;;;;;10.15;9.18;;;23.00;99.90;;;;;;5077817;28;20706;-77
2023/09/12 09:08:42;;;;;;;9.77;8.88;;;23.00;99.90;;;;;;5077755;28;20191;-77
2023/09/12 09:11:10;;;;;;;9.95;9.02;;;23.10;99.90;;;;;;5077450;28;20167;-77
2023/09/12 09:13:36;;;;;;;10.27;9.25;;;23.20;99.90;;;;;;5077314;28;20178;-77
2023/09/12 09:16:12;;;;;;;12.98;9.50;;;23.20;99.90;;;;;;5079185;28;20171;-78
2023/09/12 09:19:13;;;;;;;11.38;10.20;;;23.30;99.90;;;;;;5083491;28;20580;-77
2023/09/12 09:21:40;;;;;;;10.55;9.63;;;23.30;99.90;;;;;;5015696;28;20299;-77
2023/09/12 09:24:12;;;;;;;10.73;9.65;;;23.30;99.90;;;;;;5015597;28;20217;-78
2023/09/12 09:26:48;;;;;;;9.95;8.95;;;23.40;99.90;;;;;;5014931;28;20216;-77
2023/09/12 09:29:18;;;;;;;10.68;9.70;;;23.50;99.90;;;;;;5007456;28;20196;-78
2023/09/12 09:31:46;;;;;;;10.85;8.88;;;23.60;99.90;;;;;;5017076;28;20637;-77
2023/09/12 09:34:17;;;;;;;10.35;9.45;;;23.60;99.90;;;;;;5014496;28;20364;-77
2023/09/12 09:36:51;;;;;;;14.00;9.35;;;23.70;99.90;;;;;;5014655;28;20204;-77
2023/09/12 09:39:26;;;;;;;10.60;9.07;;;23.80;99.90;;;;;;5015447;28;20175;-78
2023/09/12 09:41:53;;;;;;;9.45;8.65;;;23.80;99.90;;;;;;5029563;28;20189;-78
2023/09/12 09:44:22;;;;;;;10.75;9.65;;;23.80;99.90;;;;;;5023236;28;20209;-77
2023/09/12 09:46:54;;;;;;;13.77;9.48;;;23.80;99.90;;;;;;4997922;28;20212;-77
2023/09/12 09:49:21;;;;;;;9.70;8.70;;;23.80;99.90;;;;;;5014358;28;20548;-79
2023/09/12 09:51:47;;;;;;;10.13;9.23;;;23.90;99.90;;;;;;5013922;28;20201;-78
2023/09/12 09:54:13;;;;;;;11.48;9.30;;;24.00;99.90;;;;;;5014307;28;20181;-78
2023/09/12 09:56:49;;;;;;;10.70;9.77;;;24.00;99.90;;;;;;5054391;28;20206;-79
2023/09/12 09:59:23;;;;;;;10.75;8.82;;;24.10;99.90;;;;;;5077984;28;20214;-78
2023/09/12 10:01:53;;;;;;;10.82;9.88;;;24.10;99.90;;;;;;5079972;28;20699;-78
2023/09/12 10:04:20;;;;;;;11.05;9.45;;;24.20;99.90;;;;;;5085292;28;20710;-78
2023/09/12 10:06:46;;;;;;;10.63;9.73;;;24.20;99.90;;;;;;5077407;28;20168;-77
2023/09/12 10:09:13;;;;;;;9.80;8.90;;;24.30;99.90;;;;;;5074805;28;20171;-79
2023/09/12 10:11:41;;;;;;;11.10;10.00;;;24.30;99.90;;;;;;5076206;28;20174;-77
2023/09/12 10:14:07;;;;;;;9.50;8.73;;;22.90;99.90;;;;;;5082113;28;20171;-79
2023/09/12 10:16:36;;;;;;;11.27;10.18;;;24.30;99.90;;;;;;5086758;28;20171;-79
2023/09/12 10:19:21;;;;;;;10.50;9.48;;;24.30;99.90;;;;;;5068444;28;20179;-80
2023/09/12 10:21:57;;;;;;;11.35;10.18;;;24.40;99.90;;;;;;5089045;28;20622;-77
2023/09/12 10:24:24;;;;;;;11.15;9.75;;;24.40;99.90;;;;;;5076725;28;20197;-78
2023/09/12 10:26:53;;;;;;;10.07;9.15;;;24.50;99.90;;;;;;5076073;28;20175;-79
2023/09/12 10:29:19;;;;;;;10.70;9.80;;;24.60;99.90;;;;;;5058332;28;20592;-78
2023/09/12 10:31:45;;;;;;;10.68;9.63;;;24.70;99.90;;;;;;5075850;28;20168;-78
2023/09/12 10:34:14;;;;;;;10.25;9.38;;;24.80;99.90;;;;;;5078853;28;20218;-78
2023/09/12 10:36:42;;;;;;;9.95;9.02;;;24.90;99.90;;;;;;5079793;28;20167;-78
2023/09/12 10:39:19;;;;;;;11.07;9.77;;;24.90;99.90;;;;;;5079044;28;20249;-78
2023/09/12 10:41:46;;;;;;;11.13;9.98;;;25.00;99.90;;;;;;5075861;28;20232;-77
2023/09/12 10:44:17;;;;;;;11.45;10.27;;;25.00;99.90;;;;;;5075351;28;20335;-78
2023/09/12 10:46:46;;;;;;;12.20;10.30;;;24.90;99.90;;;;;;5075523;28;20159;-77
2023/09/12 10:49:13;;;;;;;9.93;9.02;;;24.90;99.90;;;;;;5075543;28;20279;-77
2023/09/12 10:51:44;;;;;;;10.23;9.18;;;24.90;99.90;;;;;;5075432;28;20171;-78
2023/09/12 10:54:22;;;;;;;10.40;9.43;;;25.00;99.90;;;;;;5076799;28;20163;-78
2023/09/12 10:57:05;;;;;;;9.82;8.93;;;25.00;99.90;;;;;;5083043;28;20187;-78
2023/09/12 10:59:35;;;;;;;11.00;9.90;;;25.20;99.90;;;;;;5075782;28;20160;-77
2023/09/12 11:02:31;;;;;;;10.80;9.80;;;25.00;99.90;;;;;;5075536;28;20164;-79
2023/09/12 11:05:05;;;;;;;10.93;9.85;;;25.00;99.90;;;;;;5057332;28;20558;-77
2023/09/12 11:07:40;;;;;;;10.05;9.25;;;25.10;99.90;;;;;;5081562;28;20159;-78
2023/09/12 11:10:15;;;;;;;10.45;9.55;;;25.20;99.90;;;;;;5075786;28;20603;-78
2023/09/12 11:12:42;;;;;;;10.77;9.05;;;25.20;99.90;;;;;;5074824;28;20189;-77
2023/09/12 11:15:10;;;;;;;10.23;9.43;;;25.20;99.90;;;;;;5074819;28;20167;-77
2023/09/12 11:18:02;;;;;;;10.02;9.07;;;25.30;99.90;;;;;;5074609;28;20173;-78
2023/09/12 11:20:53;;;;;;;10.90;9.60;;;25.40;99.90;;;;;;5076308;28;20205;-78
2023/09/12 11:23:19;;;;;;;10.50;9.50;;;25.40;99.90;;;;;;5074897;28;20162;-79
2023/09/12 11:25:45;;;;;;;10.27;9.27;;;25.50;99.90;;;;;;5061101;28;20186;-77
2023/09/12 11:28:11;;;;;;;10.15;9.32;;;25.60;99.90;;;;;;5076103;28;20167;-77
2023/09/12 11:30:54;;;;;;;11.05;10.02;;;25.70;99.90;;;;;;5057288;28;20175;-77
2023/09/12 11:33:21;;;;;;;10.25;9.30;;;25.70;99.90;;;;;;5057691;28;20636;-78
2023/09/12 11:35:54;;;;;;;11.63;10.50;;;25.80;99.90;;;;;;5086072;28;20160;-77
2023/09/12 11:38:31;;;;;;;11.68;10.63;;;25.80;99.90;;;;;;5090329;28;20168;-78
2023/09/12 11:40:58;;;;;;;10.68;9.68;;;25.80;99.90;;;;;;5087450;28;20174;-77
2023/09/12 11:43:25;;;;;;;11.60;10.23;;;25.90;99.90;;;;;;5086666;28;20233;-78
2023/09/12 11:45:52;;;;;;;10.80;9.88;;;26.00;99.90;;;;;;5070490;28;20190;-79
2023/09/12 11:48:19;;;;;;;10.80;10.00;;;26.10;99.90;;;;;;5084394;28;20167;-78
2023/09/12 11:50:53;;;;;;;15.23;9.85;;;26.10;99.90;;;;;;5082731;28;20171;-78
2023/09/12 11:53:22;;;;;;;10.57;9.68;;;26.00;99.90;;;;;;5066474;28;20170;-78
2023/09/12 11:55:53;;;;;;;10.43;9.63;;;26.00;99.90;;;;;;5084925;28;20254;-78
2023/09/12 11:58:19;;;;;;;11.27;9.63;;;25.90;99.90;;;;;;5066140;28;20662;-77
2023/09/12 12:00:49;;;;;;;10.68;9.60;;;26.00;99.90;;;;;;5079675;28;20171;-79
2023/09/12 12:03:15;;;;;;;11.10;10.10;;;26.00;99.90;;;;;;5081238;28;20171;-77
2023/09/12 12:05:41;;;;;;;10.50;9.70;;;26.10;99.90;;;;;;5063275;28;20673;-78
2023/09/12 12:08:11;;;;;;;10.98;9.80;;;26.20;99.90;;;;;;5081106;28;20198;-78
2023/09/12 12:10:39;;;;;;;10.93;9.93;;;26.30;99.90;;;;;;5091692;28;20167;-78
2023/09/12 12:13:05;;;;;;;10.30;9.25;;;26.30;99.90;;;;;;5085440;28;20167;-78
2023/09/12 12:15:32;;;;;;;9.73;9.00;;;26.30;99.90;;;;;;5080398;28;20168;-77
2023/09/12 12:17:58;;;;;;;9.63;8.82;;;26.30;99.90;;;;;;5078007;28;20254;-77
2023/09/12 12:20:24;;;;;;;11.52;9.40;;;26.30;99.90;;;;;;5074622;28;20294;-78
2023/09/12 12:22:52;;;;;;;9.75;8.85;;;26.30;99.90;;;;;;5079998;28;20175;-78
2023/09/12 12:25:18;;;;;;;8.90;8.00;;;26.30;99.90;;;;;;5076672;28;20214;-78
2023/09/12 12:27:44;;;;;;;10.25;9.35;;;26.20;99.90;;;;;;5074821;28;20189;-78
2023/09/12 12:30:12;;;;;;;9.90;9.05;;;26.20;99.90;;;;;;5074689;28;20171;-79
2023/09/12 12:32:46;;;;;;;10.10;9.00;;;26.20;99.90;;;;;;5075185;28;20174;-77
2023/09/12 12:35:19;;;;;;;10.13;9.10;;;26.20;99.90;;;;;;5059843;28;20187;-78